Time;durP1;ratioP1;P1;durP2;ratioP2;P2;SDS_P1;SDS_P2;PMS_P1;PMS_P2;Temp;Humidity;BMP_temperature;BMP_pressure;BME280_temperature;BME280_humidity;BME280_pressure;Samples;Min_cycle;Max_cycle;Signal;HPM_P1;HPM_P2
2023/10/19 00:01:17;;;;;;;35.80;30.10;;;8.70;99.90;;;;;;6133606;23;20376;-93
2023/10/19 00:03:46;;;;;;;35.05;29.08;;;8.90;99.90;;;;;;6130118;23;20441;-93
2023/10/19 00:06:13;;;;;;;36.10;30.17;;;8.40;99.90;;;;;;6134151;23;20423;-96
2023/10/19 00:08:42;;;;;;;39.42;31.85;;;8.60;99.90;;;;;;6131322;23;20420;-94
2023/10/19 00:11:21;;;;;;;34.60;30.15;;;8.50;99.90;;;;;;6130432;23;20703;-93
2023/10/19 00:13:50;;;;;;;38.55;31.92;;;8.40;99.90;;;;;;6129184;23;20811;-92
2023/10/19 00:16:22;;;;;;;39.10;31.30;;;8.40;99.90;;;;;;6129765;23;20389;-92
2023/10/19 00:18:52;;;;;;;41.15;32.70;;;8.50;99.90;;;;;;6129584;23;20400;-95
2023/10/19 00:21:27;;;;;;;41.67;32.60;;;8.40;99.90;;;;;;6129102;23;20451;-92
2023/10/19 00:23:57;;;;;;;39.93;32.73;;;8.60;99.90;;;;;;6129260;23;20369;-94
2023/10/19 00:26:30;;;;;;;40.83;33.33;;;8.40;99.90;;;;;;6129833;23;20373;-95
2023/10/19 00:28:56;;;;;;;40.63;33.05;;;8.60;99.90;;;;;;6129485;23;20377;-93
2023/10/19 00:31:27;;;;;;;45.28;35.05;;;8.50;99.90;;;;;;6153537;23;20456;-91
2023/10/19 00:33:56;;;;;;;40.20;33.90;;;8.50;99.90;;;;;;6129098;23;20465;-91
2023/10/19 00:36:22;;;;;;;45.30;34.97;;;9.20;99.90;;;;;;6129409;23;20441;-88
2023/10/19 00:41:20;;;;;;;49.03;37.50;;;8.30;99.90;;;;;;6178864;23;20388;-93
2023/10/19 00:43:48;;;;;;;50.00;38.47;;;9.30;99.90;;;;;;6153368;23;20452;-94
2023/10/19 00:48:49;;;;;;;57.13;41.28;;;8.40;99.90;;;;;;6153553;23;20380;-93
2023/10/19 00:54:12;;;;;;;54.22;40.80;;;8.30;99.90;;;;;;6112564;23;20388;-92
2023/10/19 00:56:47;;;;;;;55.60;41.40;;;8.70;99.90;;;;;;6152309;23;20456;-90
2023/10/19 00:59:14;;;;;;;61.25;43.63;;;8.60;99.90;;;;;;6153054;23;20373;-88
2023/10/19 01:01:45;;;;;;;53.30;39.80;;;8.80;99.90;;;;;;6153036;23;20449;-91
2023/10/19 01:04:20;;;;;;;58.15;41.70;;;8.70;99.90;;;;;;6153857;23;20370;-92
2023/10/19 01:07:00;;;;;;;51.63;39.23;;;8.40;99.90;;;;;;6153657;23;20392;-89
2023/10/19 01:09:28;;;;;;;59.28;42.72;;;8.50;99.90;;;;;;6128464;23;20374;-93
2023/10/19 01:11:54;;;;;;;59.75;43.35;;;8.90;99.90;;;;;;6153402;23;20412;-91
2023/10/19 01:14:27;;;;;;;63.30;45.28;;;8.40;99.90;;;;;;6128987;23;20691;-90
2023/10/19 01:16:56;;;;;;;53.67;41.35;;;8.30;99.90;;;;;;6153153;23;20746;-89
2023/10/19 01:19:23;;;;;;;60.55;43.53;;;9.30;99.90;;;;;;6153601;23;20397;-92
2023/10/19 01:21:53;;;;;;;63.90;45.80;;;9.20;99.90;;;;;;6153132;23;20416;-92
2023/10/19 01:24:26;;;;;;;59.08;44.53;;;8.50;99.90;;;;;;6153722;23;20365;-93
2023/10/19 01:26:56;;;;;;;63.95;45.38;;;8.40;99.90;;;;;;6152968;23;20913;-92
2023/10/19 01:29:28;;;;;;;71.70;48.42;;;8.50;99.90;;;;;;6128578;23;20374;-91
2023/10/19 01:32:04;;;;;;;68.07;47.65;;;8.00;99.90;;;;;;6128634;23;20456;-94
2023/10/19 01:34:30;;;;;;;67.97;47.08;;;8.20;99.90;;;;;;6128706;23;20408;-92
2023/10/19 01:36:56;;;;;;;59.13;45.03;;;9.10;99.90;;;;;;6129304;23;20378;-92
2023/10/19 01:39:21;;;;;;;60.90;44.37;;;8.50;99.90;;;;;;6128509;23;20409;-92
2023/10/19 01:41:50;;;;;;;60.67;44.97;;;8.60;99.90;;;;;;6129397;23;20369;-93
2023/10/19 01:44:16;;;;;;;68.20;48.22;;;8.70;99.90;;;;;;6127242;23;20377;-90
2023/10/19 01:46:46;;;;;;;72.55;49.50;;;8.40;99.90;;;;;;6099404;23;20371;-92
2023/10/19 01:49:12;;;;;;;67.28;48.30;;;8.80;99.90;;;;;;6123390;23;20399;-92
2023/10/19 01:51:40;;;;;;;68.83;48.00;;;9.40;99.90;;;;;;6099323;23;20379;-88
2023/10/19 01:54:07;;;;;;;71.38;48.17;;;8.50;99.90;;;;;;6123688;23;20768;-89
2023/10/19 01:56:36;;;;;;;58.63;45.22;;;8.20;99.90;;;;;;6099116;23;20398;-90
2023/10/19 01:59:05;;;;;;;62.60;46.13;;;8.70;99.90;;;;;;6083359;23;20881;-91
2023/10/19 02:01:32;;;;;;;66.43;48.08;;;8.90;99.90;;;;;;6098841;23;20401;-92
2023/10/19 02:03:59;;;;;;;65.90;46.90;;;8.70;99.90;;;;;;6099260;23;20375;-91
2023/10/19 02:06:28;;;;;;;63.63;45.70;;;8.50;99.90;;;;;;6149367;23;20772;-92
2023/10/19 02:09:00;;;;;;;66.15;48.08;;;8.30;99.90;;;;;;6123443;23;20382;-93
2023/10/19 02:11:27;;;;;;;61.92;45.30;;;8.60;99.90;;;;;;6099046;23;21029;-91
2023/10/19 02:14:00;;;;;;;61.90;45.17;;;8.50;99.90;;;;;;6099389;23;20848;-91
2023/10/19 02:16:29;;;;;;;65.83;46.70;;;8.80;99.90;;;;;;6123713;23;20459;-94
2023/10/19 02:18:55;;;;;;;57.30;43.25;;;8.70;99.90;;;;;;6099020;23;20427;-93
2023/10/19 02:21:27;;;;;;;67.63;46.50;;;8.60;99.90;;;;;;6099033;23;20375;-92
2023/10/19 02:23:57;;;;;;;59.10;43.70;;;8.20;99.90;;;;;;6123161;23;20398;-93
2023/10/19 02:26:30;;;;;;;65.20;45.53;;;8.50;99.90;;;;;;6123010;23;20371;-92
2023/10/19 02:28:58;;;;;;;57.50;42.53;;;8.70;99.90;;;;;;6124581;23;20410;-93
2023/10/19 02:31:24;;;;;;;69.10;46.00;;;8.90;99.90;;;;;;6100897;23;20402;-93
2023/10/19 02:34:00;;;;;;;55.17;41.20;;;8.50;99.90;;;;;;6099480;23;20368;-94
2023/10/19 02:36:30;;;;;;;54.50;40.30;;;9.10;99.90;;;;;;6099091;23;20453;-94
2023/10/19 02:39:09;;;;;;;51.90;39.37;;;8.00;99.90;;;;;;6123900;23;20410;-92
2023/10/19 02:41:36;;;;;;;55.88;39.72;;;8.50;99.90;;;;;;6122918;23;20389;-92
2023/10/19 02:44:30;;;;;;;50.05;36.47;;;8.30;99.90;;;;;;6123653;23;20393;-92
2023/10/19 02:46:58;;;;;;;54.97;36.87;;;8.50;99.90;;;;;;6152137;23;20385;-94
2023/10/19 02:49:25;;;;;;;45.53;34.60;;;7.90;99.90;;;;;;6152941;23;20828;-91
2023/10/19 02:51:52;;;;;;;57.45;38.75;;;8.10;99.90;;;;;;6128211;23;20366;-93
2023/10/19 02:54:24;;;;;;;52.78;36.72;;;8.80;99.90;;;;;;6128135;23;20377;-93
2023/10/19 02:56:52;;;;;;;55.50;37.33;;;8.70;99.90;;;;;;6152313;23;20393;-93
2023/10/19 02:59:23;;;;;;;47.28;34.58;;;8.60;99.90;;;;;;6128355;23;20365;-93
2023/10/19 03:04:39;;;;;;;57.80;37.67;;;8.40;99.90;;;;;;6153225;23;20379;-94
2023/10/19 03:07:07;;;;;;;45.92;32.35;;;8.40;99.90;;;;;;6152383;23;20379;-91
2023/10/19 03:09:36;;;;;;;46.15;32.60;;;8.50;99.90;;;;;;6152614;23;20365;-92
2023/10/19 03:12:03;;;;;;;41.17;30.53;;;8.60;99.90;;;;;;6128569;23;20373;-92
2023/10/19 03:14:30;;;;;;;61.67;37.20;;;8.50;99.90;;;;;;6127926;23;20881;-90
2023/10/19 03:16:59;;;;;;;65.55;38.05;;;8.60;99.90;;;;;;6127933;23;20830;-91
2023/10/19 03:19:25;;;;;;;55.70;35.40;;;8.60;99.90;;;;;;6127822;23;20810;-91
2023/10/19 03:21:51;;;;;;;46.78;32.25;;;8.50;99.90;;;;;;6128728;23;20520;-88
2023/10/19 03:24:35;;;;;;;42.17;30.85;;;8.60;99.90;;;;;;6127401;23;20372;-90
2023/10/19 03:29:48;;;;;;;56.80;35.92;;;8.90;99.90;;;;;;6152439;23;20456;-90
2023/10/19 03:32:15;;;;;;;42.53;31.27;;;8.50;99.90;;;;;;6152794;23;20428;-90
2023/10/19 03:34:47;;;;;;;54.88;34.50;;;8.90;99.90;;;;;;6128388;23;20377;-90
2023/10/19 03:37:14;;;;;;;51.78;32.63;;;8.90;99.90;;;;;;6127426;23;20429;-91
2023/10/19 03:39:41;;;;;;;42.63;29.70;;;8.90;99.90;;;;;;6152292;23;20374;-89
2023/10/19 03:42:06;;;;;;;44.20;30.15;;;8.90;99.90;;;;;;6127640;23;20372;-91
2023/10/19 03:44:49;;;;;;;48.90;30.87;;;8.60;99.90;;;;;;6127835;23;20377;-90
2023/10/19 03:47:19;;;;;;;46.70;30.58;;;8.60;99.90;;;;;;6128066;23;20438;-91
2023/10/19 03:49:48;;;;;;;50.10;31.63;;;8.90;99.90;;;;;;6127611;23;20409;-89
2023/10/19 03:54:43;;;;;;;48.70;30.48;;;8.60;99.90;;;;;;6154154;23;20745;-94
2023/10/19 03:57:19;;;;;;;38.75;27.13;;;8.70;99.90;;;;;;6129508;23;20404;-90
2023/10/19 03:59:46;;;;;;;39.53;27.58;;;8.60;99.90;;;;;;6151283;23;20450;-90
2023/10/19 04:02:13;;;;;;;45.37;29.40;;;8.90;99.90;;;;;;6154233;23;20426;-90
2023/10/19 04:04:43;;;;;;;51.17;30.80;;;9.40;99.90;;;;;;6126452;23;20382;-90
2023/10/19 04:07:11;;;;;;;47.65;29.70;;;9.00;99.90;;;;;;6153842;23;20416;-91
2023/10/19 04:09:56;;;;;;;43.97;29.45;;;9.10;99.90;;;;;;6125311;23;20511;-91
2023/10/19 04:12:28;;;;;;;52.72;31.48;;;9.60;99.90;;;;;;6128963;23;20738;-91
2023/10/19 04:14:55;;;;;;;39.83;28.20;;;8.70;99.90;;;;;;6153369;23;20381;-89
2023/10/19 04:17:21;;;;;;;46.22;29.95;;;8.80;99.90;;;;;;6129633;23;20397;-93
2023/10/19 04:19:55;;;;;;;57.88;34.08;;;9.40;99.90;;;;;;6129183;23;20373;-91
2023/10/19 04:22:23;;;;;;;37.38;26.92;;;8.90;99.90;;;;;;6128422;23;20373;-88
2023/10/19 04:24:53;;;;;;;47.03;30.80;;;8.90;99.90;;;;;;6127664;23;20687;-88
2023/10/19 04:27:23;;;;;;;47.55;30.05;;;8.80;99.90;;;;;;6152936;23;20385;-91
2023/10/19 04:29:49;;;;;;;45.65;30.02;;;9.10;99.90;;;;;;6126758;23;20399;-89
2023/10/19 04:32:23;;;;;;;54.07;31.63;;;8.70;99.90;;;;;;6153581;23;20384;-92
2023/10/19 04:34:48;;;;;;;47.40;29.48;;;9.30;99.90;;;;;;6154372;23;20448;-92
2023/10/19 04:37:18;;;;;;;39.70;27.52;;;8.90;99.90;;;;;;6129008;23;20503;-90
2023/10/19 04:39:46;;;;;;;45.53;29.92;;;9.10;99.90;;;;;;6129426;23;20369;-91
2023/10/19 04:42:12;;;;;;;45.42;29.27;;;8.90;99.90;;;;;;6129270;23;20373;-91
2023/10/19 04:44:38;;;;;;;40.73;27.50;;;9.10;99.90;;;;;;6128813;23;20464;-90
2023/10/19 04:47:03;;;;;;;53.22;32.20;;;9.10;99.90;;;;;;6129017;23;20440;-93
2023/10/19 04:49:29;;;;;;;50.72;31.13;;;8.90;99.90;;;;;;6129133;23;20453;-89
2023/10/19 04:51:55;;;;;;;41.50;28.10;;;9.10;99.90;;;;;;6128972;23;20424;-88
2023/10/19 04:54:20;;;;;;;40.40;28.00;;;8.60;99.90;;;;;;6128508;23;20933;-90
2023/10/19 04:56:46;;;;;;;43.95;28.67;;;8.60;99.90;;;;;;6129179;23;20373;-89
2023/10/19 04:59:12;;;;;;;41.10;27.63;;;9.20;99.90;;;;;;6128358;23;20393;-91
2023/10/19 05:01:38;;;;;;;46.77;29.03;;;8.70;99.90;;;;;;6129141;23;20373;-90
2023/10/19 05:04:04;;;;;;;44.55;27.88;;;9.10;99.90;;;;;;6128628;23;20702;-92
2023/10/19 05:06:29;;;;;;;41.37;27.43;;;9.10;99.90;;;;;;6129545;23;20370;-91
2023/10/19 05:08:57;;;;;;;40.90;26.73;;;9.00;99.90;;;;;;6129519;23;20381;-91
2023/10/19 05:11:22;;;;;;;42.22;27.10;;;9.00;99.90;;;;;;6129502;23;20381;-90
2023/10/19 05:13:48;;;;;;;38.55;25.52;;;9.00;99.90;;;;;;6129398;23;20362;-88
2023/10/19 05:16:14;;;;;;;41.15;26.55;;;9.20;99.90;;;;;;6129107;23;20471;-93
2023/10/19 05:18:39;;;;;;;35.17;24.50;;;9.10;99.90;;;;;;6128851;23;20954;-91
2023/10/19 05:21:05;;;;;;;43.37;27.37;;;9.30;99.90;;;;;;6129136;23;20749;-90
2023/10/19 05:23:31;;;;;;;33.50;23.98;;;9.00;99.90;;;;;;6129067;23;20380;-91
2023/10/19 05:26:04;;;;;;;37.92;24.58;;;9.10;99.90;;;;;;6128654;23;20393;-89
2023/10/19 05:28:30;;;;;;;34.72;23.58;;;9.00;99.90;;;;;;6128530;23;20706;-93
2023/10/19 05:30:56;;;;;;;36.13;23.95;;;9.60;99.90;;;;;;6128972;23;20377;-91
2023/10/19 05:33:23;;;;;;;26.75;20.08;;;9.00;99.90;;;;;;6128935;23;20392;-91
2023/10/19 05:35:49;;;;;;;30.77;21.33;;;9.40;99.90;;;;;;6129208;23;20876;-88
2023/10/19 05:38:16;;;;;;;29.77;21.98;;;9.00;99.90;;;;;;6127238;23;20432;-91
2023/10/19 05:40:45;;;;;;;33.53;22.73;;;9.00;99.90;;;;;;6128607;23;20369;-90
2023/10/19 05:43:11;;;;;;;29.95;21.45;;;9.10;99.90;;;;;;6152052;23;20374;-91
2023/10/19 05:45:38;;;;;;;45.60;27.05;;;9.20;99.90;;;;;;6153313;23;20381;-90
2023/10/19 05:48:06;;;;;;;29.92;21.95;;;9.60;99.90;;;;;;6153381;23;20377;-91
2023/10/19 05:50:35;;;;;;;41.13;25.70;;;9.10;99.90;;;;;;6153091;23;20369;-90
2023/10/19 05:53:03;;;;;;;54.40;28.73;;;9.30;99.90;;;;;;6128397;23;20400;-89
2023/10/19 05:55:28;;;;;;;40.42;25.05;;;9.30;99.90;;;;;;6127983;23;20396;-91
2023/10/19 05:57:55;;;;;;;35.65;23.70;;;9.40;99.90;;;;;;6128575;23;20913;-90
2023/10/19 06:00:21;;;;;;;26.40;20.42;;;9.30;99.90;;;;;;6128648;23;20830;-87
2023/10/19 06:02:51;;;;;;;36.92;24.25;;;9.10;99.90;;;;;;6128610;23;20452;-92
2023/10/19 06:05:18;;;;;;;41.30;25.73;;;9.40;99.90;;;;;;6153275;23;20405;-92
2023/10/19 06:07:48;;;;;;;35.90;23.90;;;9.30;99.90;;;;;;6127570;23;20366;-89
2023/10/19 06:10:23;;;;;;;30.20;21.37;;;9.40;99.90;;;;;;6127773;23;20374;-92
2023/10/19 06:12:50;;;;;;;36.33;24.17;;;9.30;99.90;;;;;;6128225;23;20373;-91
2023/10/19 06:15:18;;;;;;;26.90;20.52;;;9.00;99.90;;;;;;6128365;23;20421;-91
2023/10/19 06:17:45;;;;;;;35.55;24.63;;;9.20;99.90;;;;;;6128471;23;20432;-93
2023/10/19 06:20:25;;;;;;;32.53;22.97;;;9.20;99.90;;;;;;6128581;23;20369;-91
2023/10/19 06:22:56;;;;;;;35.03;24.10;;;9.20;99.90;;;;;;6153565;23;20449;-91
2023/10/19 06:25:24;;;;;;;26.13;20.30;;;9.20;99.90;;;;;;6126439;23;20419;-89
2023/10/19 06:27:51;;;;;;;28.05;20.73;;;9.20;99.90;;;;;;6152874;23;20766;-90
2023/10/19 06:30:18;;;;;;;29.17;21.63;;;9.20;99.90;;;;;;6152781;23;20698;-90
2023/10/19 06:32:56;;;;;;;36.17;23.58;;;9.50;99.90;;;;;;6128222;23;20361;-89
2023/10/19 06:35:23;;;;;;;41.85;25.13;;;9.20;99.90;;;;;;6153174;23;20457;-90
2023/10/19 06:37:49;;;;;;;35.83;23.75;;;9.40;99.90;;;;;;6152939;23;20476;-90
2023/10/19 06:40:16;;;;;;;29.92;21.58;;;9.30;99.90;;;;;;6128556;23;20400;-88
2023/10/19 06:42:45;;;;;;;29.55;21.95;;;9.50;99.90;;;;;;6152300;23;20409;-88
2023/10/19 06:45:15;;;;;;;31.80;22.50;;;9.60;99.90;;;;;;6154861;23;20731;-90
2023/10/19 06:47:42;;;;;;;26.50;20.10;;;9.40;99.90;;;;;;6152317;23;20373;-89
2023/10/19 06:50:10;;;;;;;25.63;19.13;;;9.30;99.90;;;;;;6178615;23;21044;-92
2023/10/19 06:52:39;;;;;;;25.97;19.43;;;9.30;99.90;;;;;;6153053;23;20373;-91
2023/10/19 06:55:13;;;;;;;21.60;17.85;;;9.20;99.90;;;;;;6127616;23;20745;-88
2023/10/19 06:57:44;;;;;;;22.97;17.77;;;9.30;99.90;;;;;;6152973;23;20393;-89
2023/10/19 07:00:15;;;;;;;34.88;22.50;;;9.30;99.90;;;;;;6152746;23;20416;-91
2023/10/19 07:02:43;;;;;;;25.52;18.75;;;9.20;99.90;;;;;;6152791;23;20750;-91
2023/10/19 07:05:13;;;;;;;22.90;17.95;;;9.30;99.90;;;;;;6152434;23;20366;-90
2023/10/19 07:07:43;;;;;;;22.70;18.23;;;9.30;99.90;;;;;;6152533;23;20377;-90
2023/10/19 07:10:12;;;;;;;17.75;15.85;;;8.80;99.90;;;;;;6151962;23;20444;-89
2023/10/19 07:12:41;;;;;;;29.03;19.70;;;9.60;99.90;;;;;;6151815;23;20384;-89
2023/10/19 07:15:07;;;;;;;22.10;17.63;;;9.00;99.90;;;;;;6153068;23;20374;-90
2023/10/19 07:17:37;;;;;;;27.80;19.40;;;9.30;99.90;;;;;;6152153;23;20400;-89
2023/10/19 07:20:06;;;;;;;24.80;18.73;;;9.40;99.90;;;;;;6127193;23;20405;-88
2023/10/19 07:22:32;;;;;;;24.23;19.23;;;9.30;99.90;;;;;;6126466;23;20427;-92
2023/10/19 07:24:58;;;;;;;20.75;17.02;;;9.60;99.90;;;;;;6151930;23;20366;-89
2023/10/19 07:27:27;;;;;;;18.67;15.93;;;9.50;99.90;;;;;;6128354;23;20400;-88
2023/10/19 07:29:53;;;;;;;35.08;22.42;;;9.60;99.90;;;;;;6129540;23;20370;-89
2023/10/19 07:32:18;;;;;;;18.45;15.90;;;8.70;99.90;;;;;;6129657;23;20385;-89
2023/10/19 07:34:44;;;;;;;19.38;17.08;;;9.20;99.90;;;;;;6129177;23;20408;-90
2023/10/19 07:37:15;;;;;;;22.77;18.10;;;9.10;99.90;;;;;;6128689;23;20411;-87
2023/10/19 07:39:45;;;;;;;19.25;16.80;;;9.60;99.90;;;;;;6128872;23;20365;-90
2023/10/19 07:42:11;;;;;;;21.35;17.80;;;9.10;99.90;;;;;;6153808;23;20503;-90
2023/10/19 07:44:37;;;;;;;27.93;19.97;;;10.20;99.90;;;;;;6127053;23;20846;-92
2023/10/19 07:47:03;;;;;;;18.98;16.63;;;9.60;99.90;;;;;;6124987;23;20379;-88
2023/10/19 07:49:29;;;;;;;17.92;16.00;;;9.70;99.90;;;;;;6100783;23;20450;-90
2023/10/19 07:51:55;;;;;;;19.27;17.15;;;9.50;99.90;;;;;;6124480;23;20375;-90
2023/10/19 07:54:20;;;;;;;18.58;16.58;;;9.50;99.90;;;;;;6100500;23;20375;-89
2023/10/19 07:56:46;;;;;;;18.75;16.73;;;9.60;99.90;;;;;;6100777;23;20799;-90
2023/10/19 07:59:12;;;;;;;21.65;18.63;;;9.80;99.90;;;;;;6100356;23;20399;-89
2023/10/19 08:01:39;;;;;;;27.77;21.23;;;9.50;99.90;;;;;;6124511;23;20709;-90
2023/10/19 08:04:05;;;;;;;23.65;19.52;;;9.50;99.90;;;;;;6099739;23;20458;-90
2023/10/19 08:06:31;;;;;;;17.48;15.68;;;9.50;99.90;;;;;;6100711;23;20364;-91
2023/10/19 08:08:58;;;;;;;32.38;22.25;;;9.80;99.90;;;;;;6099707;23;20371;-89
2023/10/19 08:11:24;;;;;;;18.27;16.13;;;9.70;99.90;;;;;;6100083;23;20458;-89
2023/10/19 08:13:50;;;;;;;22.55;19.13;;;9.90;99.90;;;;;;6124419;23;20371;-89
2023/10/19 08:16:16;;;;;;;19.92;17.73;;;9.70;99.90;;;;;;6099659;23;20371;-89
2023/10/19 08:18:43;;;;;;;23.13;19.05;;;9.80;99.90;;;;;;6099544;23;20399;-89
2023/10/19 08:21:08;;;;;;;22.65;18.65;;;9.50;99.90;;;;;;6123492;23;20375;-86
2023/10/19 08:23:34;;;;;;;25.95;20.55;;;9.80;99.90;;;;;;6123914;23;20370;-89
2023/10/19 08:26:00;;;;;;;20.73;17.92;;;9.90;99.90;;;;;;6099320;23;20376;-90
2023/10/19 08:28:26;;;;;;;21.20;17.33;;;9.50;99.90;;;;;;6100687;23;20736;-91
2023/10/19 08:31:00;;;;;;;21.53;18.37;;;9.70;99.90;;;;;;6098377;23;20379;-89
2023/10/19 08:33:26;;;;;;;18.92;16.92;;;10.60;99.90;;;;;;6124149;23;20781;-91
2023/10/19 08:35:53;;;;;;;23.67;19.17;;;10.10;99.90;;;;;;6098984;23;20378;-88
2023/10/19 08:38:20;;;;;;;23.13;19.13;;;10.00;99.90;;;;;;6099080;23;20391;-90
2023/10/19 08:40:47;;;;;;;22.25;18.48;;;9.70;99.90;;;;;;6099677;23;20398;-90
2023/10/19 08:43:18;;;;;;;19.95;17.85;;;10.10;99.90;;;;;;6099610;23;20467;-90
2023/10/19 08:45:45;;;;;;;21.38;18.15;;;9.60;99.90;;;;;;6125039;23;20862;-89
2023/10/19 08:48:11;;;;;;;21.95;17.70;;;10.00;99.90;;;;;;6128958;23;20459;-90
2023/10/19 08:50:37;;;;;;;21.35;17.92;;;10.70;99.90;;;;;;6177992;23;20379;-89
2023/10/19 08:53:14;;;;;;;21.67;17.90;;;10.20;99.90;;;;;;6128907;23;20734;-90
2023/10/19 08:55:40;;;;;;;26.00;19.93;;;9.90;99.90;;;;;;6127940;23;20452;-89
2023/10/19 08:58:06;;;;;;;26.05;20.60;;;10.20;99.90;;;;;;6127714;23;20704;-88
2023/10/19 09:00:54;;;;;;;23.70;19.20;;;10.00;99.90;;;;;;6152298;23;20702;-90
2023/10/19 09:03:21;;;;;;;24.55;19.25;;;10.00;99.90;;;;;;6128000;23;20380;-88
2023/10/19 09:05:48;;;;;;;26.70;19.13;;;10.00;99.90;;;;;;6152941;23;20369;-90
2023/10/19 09:08:18;;;;;;;27.60;20.90;;;10.00;99.90;;;;;;6153058;23;20365;-89
2023/10/19 09:10:48;;;;;;;30.48;21.63;;;10.00;99.90;;;;;;6128997;23;20448;-89
2023/10/19 09:13:18;;;;;;;23.65;19.30;;;10.20;99.90;;;;;;6129389;23;20369;-89
2023/10/19 09:15:44;;;;;;;38.42;24.80;;;10.20;99.90;;;;;;6128781;23;20369;-90
2023/10/19 09:18:14;;;;;;;33.13;23.10;;;10.80;99.90;;;;;;6129050;23;20795;-90
2023/10/19 09:20:42;;;;;;;28.77;21.58;;;10.20;99.90;;;;;;6153295;23;20380;-90
2023/10/19 09:23:07;;;;;;;33.13;23.08;;;10.30;99.90;;;;;;6128905;23;20373;-91
2023/10/19 09:25:35;;;;;;;29.83;22.02;;;10.40;99.90;;;;;;6128388;23;20374;-89
2023/10/19 09:28:02;;;;;;;28.60;22.48;;;10.20;99.90;;;;;;6128731;23;20869;-88
2023/10/19 09:30:33;;;;;;;34.58;24.38;;;10.30;99.90;;;;;;6152774;23;20416;-88
2023/10/19 09:33:00;;;;;;;31.13;22.65;;;11.20;99.90;;;;;;6128395;23;20415;-93
2023/10/19 09:35:27;;;;;;;30.98;24.30;;;10.60;99.90;;;;;;6153051;23;20373;-90
2023/10/19 09:37:56;;;;;;;31.08;23.45;;;10.40;99.90;;;;;;6154088;23;20393;-90
2023/10/19 09:40:22;;;;;;;36.50;25.30;;;10.60;99.90;;;;;;6128046;23;20551;-91
2023/10/19 09:42:53;;;;;;;34.85;25.13;;;10.40;99.90;;;;;;6153138;23;20366;-88
2023/10/19 09:45:20;;;;;;;37.20;26.00;;;10.40;99.90;;;;;;6153253;23;20373;-90
2023/10/19 09:47:54;;;;;;;36.90;26.60;;;10.40;99.90;;;;;;6150918;23;20397;-90
2023/10/19 09:50:19;;;;;;;32.97;25.13;;;10.40;99.90;;;;;;6126442;23;20373;-91
2023/10/19 09:52:45;;;;;;;32.07;24.27;;;10.50;99.90;;;;;;6124321;23;20846;-90
2023/10/19 09:55:38;;;;;;;32.92;25.13;;;10.20;99.90;;;;;;6149757;23;20512;-90
2023/10/19 09:58:17;;;;;;;41.53;29.35;;;10.20;99.90;;;;;;6119705;23;20399;-89
2023/10/19 10:00:49;;;;;;;44.53;29.90;;;10.30;99.90;;;;;;6122335;23;20372;-91
2023/10/19 10:03:47;;;;;;;34.27;26.23;;;10.20;99.90;;;;;;6128952;23;20433;-89
2023/10/19 10:06:27;;;;;;;34.33;25.48;;;10.30;99.90;;;;;;6128433;23;20431;-90
2023/10/19 10:08:53;;;;;;;39.33;27.35;;;10.40;99.90;;;;;;6128413;23;20385;-90
2023/10/19 10:11:26;;;;;;;41.80;28.42;;;10.30;99.90;;;;;;6128354;23;20377;-90
2023/10/19 10:13:53;;;;;;;35.40;26.38;;;11.10;99.90;;;;;;6128708;23;20715;-90
2023/10/19 10:16:21;;;;;;;30.48;24.83;;;10.50;99.90;;;;;;6128960;23;20707;-89
2023/10/19 10:18:50;;;;;;;41.65;29.02;;;10.50;99.90;;;;;;6128268;23;20878;-90
2023/10/19 10:21:26;;;;;;;38.15;27.48;;;10.80;99.90;;;;;;6127671;23;20885;-91
2023/10/19 10:23:57;;;;;;;31.67;25.43;;;10.90;99.90;;;;;;6128492;23;20388;-91
2023/10/19 10:26:36;;;;;;;27.23;22.15;;;10.70;99.90;;;;;;6128485;23;20384;-90
2023/10/19 10:29:23;;;;;;;28.98;22.77;;;11.50;99.90;;;;;;6128438;23;20378;-90
2023/10/19 10:31:50;;;;;;;27.57;22.43;;;10.70;99.90;;;;;;6127612;23;20435;-91
2023/10/19 10:34:37;;;;;;;32.55;24.08;;;10.90;99.90;;;;;;6128451;23;20405;-91
2023/10/19 10:37:07;;;;;;;34.88;25.60;;;10.80;99.90;;;;;;6128530;23;20377;-91
2023/10/19 10:39:36;;;;;;;28.20;23.50;;;10.80;99.90;;;;;;6128633;23;22417;-93
2023/10/19 10:42:05;;;;;;;27.13;22.67;;;11.00;99.90;;;;;;6128819;23;20841;-89
2023/10/19 10:44:38;;;;;;;27.23;22.33;;;10.80;99.90;;;;;;6149181;23;20382;-91
2023/10/19 10:47:08;;;;;;;25.55;21.20;;;10.80;99.90;;;;;;6117708;23;20381;-93
2023/10/19 10:49:33;;;;;;;28.63;23.08;;;11.10;99.90;;;;;;6128309;23;20416;-93
2023/10/19 10:51:59;;;;;;;32.28;24.88;;;11.70;99.90;;;;;;6128927;23;20377;-92
2023/10/19 10:54:25;;;;;;;28.67;23.30;;;11.10;99.90;;;;;;6128616;23;20380;-92
2023/10/19 10:56:50;;;;;;;27.50;22.48;;;11.30;99.90;;;;;;6129353;23;20485;-90
2023/10/19 10:59:19;;;;;;;26.00;21.23;;;11.10;99.90;;;;;;6129267;23;20472;-92
2023/10/19 11:01:45;;;;;;;27.17;21.57;;;11.40;99.90;;;;;;6128849;23;20583;-90
2023/10/19 11:04:11;;;;;;;24.25;20.58;;;11.30;99.90;;;;;;6131104;23;20893;-92
2023/10/19 11:06:50;;;;;;;30.77;22.90;;;11.20;99.90;;;;;;6129483;23;20376;-92
2023/10/19 11:09:19;;;;;;;37.57;26.63;;;11.20;99.90;;;;;;6130409;23;20424;-93
2023/10/19 11:11:49;;;;;;;28.73;23.83;;;11.30;99.90;;;;;;6129713;23;20725;-92
2023/10/19 11:14:15;;;;;;;27.90;22.73;;;11.30;99.90;;;;;;6129889;23;20381;-91
2023/10/19 11:16:43;;;;;;;34.35;25.83;;;11.50;99.90;;;;;;6130160;23;20789;-91
2023/10/19 11:19:09;;;;;;;31.40;24.50;;;11.50;99.90;;;;;;6129401;23;20397;-92
2023/10/19 11:21:36;;;;;;;33.67;24.73;;;11.40;99.90;;;;;;6130246;23;20361;-92
2023/10/19 11:24:01;;;;;;;27.48;23.30;;;11.20;99.90;;;;;;6129437;23;20904;-91
2023/10/19 11:26:27;;;;;;;25.97;21.70;;;11.20;99.90;;;;;;6130066;23;20373;-92
2023/10/19 11:29:01;;;;;;;28.70;22.20;;;11.50;99.90;;;;;;6129245;23;20380;-91
2023/10/19 11:31:27;;;;;;;29.30;22.92;;;11.40;99.90;;;;;;6130492;23;20373;-92
2023/10/19 11:33:58;;;;;;;31.48;24.15;;;11.20;99.90;;;;;;6130362;23;20921;-92
2023/10/19 11:36:24;;;;;;;33.58;25.15;;;11.40;99.90;;;;;;6130300;23;20365;-92
2023/10/19 11:38:52;;;;;;;26.00;21.17;;;11.50;99.90;;;;;;6129926;23;20416;-93
2023/10/19 11:41:17;;;;;;;28.33;21.70;;;11.60;99.90;;;;;;6129961;23;21164;-90
2023/10/19 11:43:45;;;;;;;27.57;21.73;;;11.60;99.90;;;;;;6129871;23;20370;-91
2023/10/19 11:46:11;;;;;;;27.90;21.80;;;11.40;99.90;;;;;;6123996;23;20383;-93
2023/10/19 11:48:39;;;;;;;25.60;21.45;;;11.70;99.90;;;;;;6149698;23;20400;-93
2023/10/19 11:51:06;;;;;;;33.25;24.83;;;11.40;99.90;;;;;;6149705;23;20430;-93
2023/10/19 11:53:36;;;;;;;24.23;20.65;;;11.40;99.90;;;;;;6149009;23;20379;-93
2023/10/19 11:56:11;;;;;;;24.27;19.85;;;11.60;99.90;;;;;;6149399;23;20382;-94
2023/10/19 11:58:39;;;;;;;29.00;21.95;;;11.50;99.90;;;;;;6148227;23;20395;-94
2023/10/19 12:01:08;;;;;;;25.85;21.30;;;11.50;99.90;;;;;;6149351;23;20424;-92
2023/10/19 12:03:39;;;;;;;27.20;21.77;;;11.40;99.90;;;;;;6149025;23;20390;-94
2023/10/19 12:06:08;;;;;;;18.95;16.70;;;11.40;99.90;;;;;;6149662;23;20374;-92
2023/10/19 12:08:35;;;;;;;16.83;15.10;;;11.40;99.90;;;;;;6149234;23;20367;-93
2023/10/19 12:11:03;;;;;;;20.80;17.75;;;11.40;99.90;;;;;;6148514;23;20382;-94
2023/10/19 12:13:29;;;;;;;20.92;17.00;;;11.50;99.90;;;;;;6148530;23;20375;-93
2023/10/19 12:15:55;;;;;;;17.83;16.13;;;11.60;99.90;;;;;;6123885;23;20457;-91
2023/10/19 12:18:26;;;;;;;19.40;17.40;;;11.70;99.90;;;;;;6149330;23;20650;-93
2023/10/19 12:20:56;;;;;;;17.70;15.85;;;11.60;99.90;;;;;;6148675;23;20993;-93
2023/10/19 12:23:23;;;;;;;13.57;12.33;;;11.70;99.90;;;;;;6149493;23;20915;-93
2023/10/19 12:25:49;;;;;;;14.70;13.23;;;12.10;99.90;;;;;;6149124;23;20367;-93
2023/10/19 12:28:15;;;;;;;19.73;17.60;;;11.70;99.90;;;;;;6148156;23;20448;-94
2023/10/19 12:30:41;;;;;;;17.23;15.48;;;11.50;99.90;;;;;;6149484;23;20401;-91
2023/10/19 12:33:11;;;;;;;15.57;14.18;;;11.20;99.90;;;;;;6148688;23;20375;-93
2023/10/19 12:35:56;;;;;;;16.15;14.45;;;11.40;99.90;;;;;;6124632;23;20415;-93
2023/10/19 12:38:22;;;;;;;15.88;14.27;;;11.60;99.90;;;;;;6149085;23;20409;-92
2023/10/19 12:40:52;;;;;;;15.57;14.07;;;10.80;99.90;;;;;;6149684;23;20770;-92
2023/10/19 12:43:19;;;;;;;17.45;15.52;;;11.80;99.90;;;;;;6148126;23;20371;-94
2023/10/19 12:45:57;;;;;;;19.25;17.02;;;11.40;99.90;;;;;;6148156;23;20918;-95
2023/10/19 12:48:30;;;;;;;19.60;16.83;;;11.40;99.90;;;;;;6148118;23;20430;-94
2023/10/19 12:50:56;;;;;;;21.80;17.45;;;11.80;99.90;;;;;;6123741;23;20386;-93
2023/10/19 12:53:24;;;;;;;24.40;20.38;;;10.90;99.90;;;;;;6149113;23;20886;-94
2023/10/19 12:55:50;;;;;;;26.45;20.48;;;11.20;99.90;;;;;;6148415;23;20460;-95
2023/10/19 12:58:19;;;;;;;24.88;19.63;;;11.40;99.90;;;;;;6148077;23;20779;-96